sensor_id;sensor_type;location;lat;lon;timestamp;pressure;altitude;pressure_sealevel;temperature
43292;BMP280;28754;47.700;7.924;2023-02-28T00:00:14;91403.69;;;-2.52
43292;BMP280;28754;47.700;7.924;2023-02-28T00:03:01;91405.63;;;-2.54
43292;BMP280;28754;47.700;7.924;2023-02-28T00:05:48;91404.41;;;-2.58
43292;BMP280;28754;47.700;7.924;2023-02-28T00:08:35;91406.94;;;-2.58
43292;BMP280;28754;47.700;7.924;2023-02-28T00:11:22;91403.06;;;-2.60
43292;BMP280;28754;47.700;7.924;2023-02-28T00:14:08;91413.03;;;-2.67
43292;BMP280;28754;47.700;7.924;2023-02-28T00:16:55;91414.34;;;-2.71
43292;BMP280;28754;47.700;7.924;2023-02-28T00:19:42;91412.19;;;-2.73
43292;BMP280;28754;47.700;7.924;2023-02-28T00:22:28;91419.41;;;-2.64
43292;BMP280;28754;47.700;7.924;2023-02-28T00:25:20;91401.13;;;-2.58
43292;BMP280;28754;47.700;7.924;2023-02-28T00:28:07;91411.94;;;-2.58
43292;BMP280;28754;47.700;7.924;2023-02-28T00:30:54;91417.31;;;-2.61
43292;BMP280;28754;47.700;7.924;2023-02-28T00:33:40;91420.75;;;-2.62
43292;BMP280;28754;47.700;7.924;2023-02-28T00:36:27;91420.16;;;-2.64
43292;BMP280;28754;47.700;7.924;2023-02-28T00:39:14;91408.84;;;-2.60
43292;BMP280;28754;47.700;7.924;2023-02-28T00:42:00;91416.72;;;-2.63
43292;BMP280;28754;47.700;7.924;2023-02-28T00:44:48;91415.91;;;-2.63
43292;BMP280;28754;47.700;7.924;2023-02-28T00:47:35;91404.19;;;-2.63
43292;BMP280;28754;47.700;7.924;2023-02-28T00:50:22;91417.31;;;-2.61
43292;BMP280;28754;47.700;7.924;2023-02-28T00:53:08;91411.94;;;-2.58
43292;BMP280;28754;47.700;7.924;2023-02-28T00:55:55;91413.03;;;-2.67
43292;BMP280;28754;47.700;7.924;2023-02-28T00:58:42;91413.38;;;-2.70
43292;BMP280;28754;47.700;7.924;2023-02-28T01:01:29;91417.97;;;-2.73
43292;BMP280;28754;47.700;7.924;2023-02-28T01:04:15;91419.72;;;-2.73
43292;BMP280;28754;47.700;7.924;2023-02-28T01:07:02;91420.88;;;-2.70
43292;BMP280;28754;47.700;7.924;2023-02-28T01:09:49;91414.94;;;-2.69
43292;BMP280;28754;47.700;7.924;2023-02-28T01:12:35;91413.38;;;-2.70
43292;BMP280;28754;47.700;7.924;2023-02-28T01:15:22;91409.69;;;-2.73
43292;BMP280;28754;47.700;7.924;2023-02-28T01:18:09;91413.13;;;-2.74
43292;BMP280;28754;47.700;7.924;2023-02-28T01:20:56;91407.13;;;-2.80
43292;BMP280;28754;47.700;7.924;2023-02-28T01:23:43;91404.97;;;-2.83
43292;BMP280;28754;47.700;7.924;2023-02-28T01:26:31;91404.78;;;-2.81
43292;BMP280;28754;47.700;7.924;2023-02-28T01:29:18;91397.88;;;-2.79
43292;BMP280;28754;47.700;7.924;2023-02-28T01:32:06;91399.66;;;-2.73
43292;BMP280;28754;47.700;7.924;2023-02-28T01:34:52;91405.28;;;-2.72
43292;BMP280;28754;47.700;7.924;2023-02-28T01:37:39;91414.50;;;-2.72
43292;BMP280;28754;47.700;7.924;2023-02-28T01:40:26;91410.28;;;-2.72
43292;BMP280;28754;47.700;7.924;2023-02-28T01:43:29;91403.09;;;-2.74
43292;BMP280;28754;47.700;7.924;2023-02-28T01:46:16;91411.16;;;-2.79
43292;BMP280;28754;47.700;7.924;2023-02-28T01:49:15;91406.16;;;-2.79
43292;BMP280;28754;47.700;7.924;2023-02-28T01:52:03;91398.63;;;-2.79
43292;BMP280;28754;47.700;7.924;2023-02-28T01:54:54;91401.31;;;-2.80
43292;BMP280;28754;47.700;7.924;2023-02-28T01:57:52;91403.22;;;-2.82
43292;BMP280;28754;47.700;7.924;2023-02-28T02:00:41;91399.00;;;-2.82
43292;BMP280;28754;47.700;7.924;2023-02-28T02:03:31;91394.06;;;-2.75
43292;BMP280;28754;47.700;7.924;2023-02-28T02:06:18;91394.50;;;-2.66
43292;BMP280;28754;47.700;7.924;2023-02-28T02:09:05;91390.88;;;-2.63
43292;BMP280;28754;47.700;7.924;2023-02-28T02:11:55;91389.50;;;-2.66
43292;BMP280;28754;47.700;7.924;2023-02-28T02:15:03;91381.03;;;-2.65
43292;BMP280;28754;47.700;7.924;2023-02-28T02:17:57;91392.53;;;-2.70
43292;BMP280;28754;47.700;7.924;2023-02-28T02:21:12;91388.63;;;-2.79
43292;BMP280;28754;47.700;7.924;2023-02-28T02:27:37;91370.13;;;-2.78
43292;BMP280;28754;47.700;7.924;2023-02-28T02:40:45;91375.78;;;-2.70
43292;BMP280;28754;47.700;7.924;2023-02-28T02:43:47;91377.47;;;-2.76
43292;BMP280;28754;47.700;7.924;2023-02-28T02:46:49;91370.09;;;-2.84
43292;BMP280;28754;47.700;7.924;2023-02-28T02:49:39;91381.75;;;-2.91
43292;BMP280;28754;47.700;7.924;2023-02-28T02:52:40;91364.22;;;-2.91
43292;BMP280;28754;47.700;7.924;2023-02-28T02:55:28;91374.22;;;-2.91
43292;BMP280;28754;47.700;7.924;2023-02-28T02:58:19;91382.94;;;-2.87
43292;BMP280;28754;47.700;7.924;2023-02-28T03:01:10;91372.31;;;-2.89
43292;BMP280;28754;47.700;7.924;2023-02-28T03:04:07;91368.88;;;-2.88
43292;BMP280;28754;47.700;7.924;2023-02-28T03:06:53;91372.59;;;-2.84
43292;BMP280;28754;47.700;7.924;2023-02-28T03:09:52;91370.25;;;-2.86
43292;BMP280;28754;47.700;7.924;2023-02-28T03:12:58;91372.38;;;-2.83
43292;BMP280;28754;47.700;7.924;2023-02-28T03:23:43;91378.75;;;-2.80
43292;BMP280;28754;47.700;7.924;2023-02-28T03:26:38;91366.19;;;-2.87
43292;BMP280;28754;47.700;7.924;2023-02-28T03:29:46;91366.19;;;-2.87
43292;BMP280;28754;47.700;7.924;2023-02-28T03:32:50;91376.75;;;-2.91
43292;BMP280;28754;47.700;7.924;2023-02-28T03:35:45;91378.84;;;-2.95
43292;BMP280;28754;47.700;7.924;2023-02-28T03:38:47;91373.09;;;-2.89
43292;BMP280;28754;47.700;7.924;2023-02-28T03:41:47;91374.84;;;-2.89
43292;BMP280;28754;47.700;7.924;2023-02-28T03:44:49;91378.91;;;-2.88
43292;BMP280;28754;47.700;7.924;2023-02-28T03:50:55;91374.53;;;-3.01
43292;BMP280;28754;47.700;7.924;2023-02-28T03:53:59;91367.97;;;-3.02
43292;BMP280;28754;47.700;7.924;2023-02-28T03:57:10;91373.19;;;-3.03
43292;BMP280;28754;47.700;7.924;2023-02-28T04:00:15;91373.25;;;-2.97
43292;BMP280;28754;47.700;7.924;2023-02-28T04:03:05;91375.84;;;-3.05
43292;BMP280;28754;47.700;7.924;2023-02-28T04:05:54;91372.16;;;-3.08
43292;BMP280;28754;47.700;7.924;2023-02-28T04:08:41;91377.00;;;-3.07
43292;BMP280;28754;47.700;7.924;2023-02-28T04:12:01;91376.81;;;-3.06
43292;BMP280;28754;47.700;7.924;2023-02-28T04:14:47;91378.88;;;-3.09
43292;BMP280;28754;47.700;7.924;2023-02-28T04:17:34;91371.75;;;-3.12
43292;BMP280;28754;47.700;7.924;2023-02-28T04:20:21;91368.50;;;-3.06
43292;BMP280;28754;47.700;7.924;2023-02-28T04:23:07;91366.84;;;-2.99
43292;BMP280;28754;47.700;7.924;2023-02-28T04:25:55;91374.53;;;-3.01
43292;BMP280;28754;47.700;7.924;2023-02-28T04:28:42;91379.91;;;-3.04
43292;BMP280;28754;47.700;7.924;2023-02-28T04:31:28;91385.09;;;-3.05
43292;BMP280;28754;47.700;7.924;2023-02-28T04:34:16;91379.31;;;-3.06
43292;BMP280;28754;47.700;7.924;2023-02-28T04:37:03;91376.44;;;-3.03
43292;BMP280;28754;47.700;7.924;2023-02-28T04:39:50;91389.75;;;-3.02
43292;BMP280;28754;47.700;7.924;2023-02-28T04:42:36;91385.34;;;-3.00
43292;BMP280;28754;47.700;7.924;2023-02-28T04:45:23;91394.22;;;-2.98
43292;BMP280;28754;47.700;7.924;2023-02-28T04:48:10;91391.53;;;-2.96
43292;BMP280;28754;47.700;7.924;2023-02-28T04:51:02;91403.69;;;-2.93
43292;BMP280;28754;47.700;7.924;2023-02-28T04:53:49;91388.00;;;-3.02
43292;BMP280;28754;47.700;7.924;2023-02-28T04:56:36;91393.00;;;-3.02
43292;BMP280;28754;47.700;7.924;2023-02-28T04:59:23;91398.41;;;-3.05
43292;BMP280;28754;47.700;7.924;2023-02-28T05:02:12;91389.88;;;-3.10
43292;BMP280;28754;47.700;7.924;2023-02-28T05:05:02;91399.69;;;-3.08
43292;BMP280;28754;47.700;7.924;2023-02-28T05:07:49;91402.72;;;-3.13
43292;BMP280;28754;47.700;7.924;2023-02-28T05:10:36;91406.81;;;-3.12
43292;BMP280;28754;47.700;7.924;2023-02-28T05:13:23;91402.13;;;-3.15
43292;BMP280;28754;47.700;7.924;2023-02-28T05:16:09;91400.66;;;-3.09
43292;BMP280;28754;47.700;7.924;2023-02-28T05:18:56;91400.41;;;-3.14
43292;BMP280;28754;47.700;7.924;2023-02-28T05:21:53;91409.03;;;-3.17
43292;BMP280;28754;47.700;7.924;2023-02-28T05:24:40;91405.94;;;-3.19
43292;BMP280;28754;47.700;7.924;2023-02-28T05:27:28;91408.63;;;-3.20
43292;BMP280;28754;47.700;7.924;2023-02-28T05:30:15;91403.19;;;-3.24
43292;BMP280;28754;47.700;7.924;2023-02-28T05:33:02;91403.19;;;-3.24
43292;BMP280;28754;47.700;7.924;2023-02-28T05:35:49;91411.22;;;-3.14
43292;BMP280;28754;47.700;7.924;2023-02-28T05:38:35;91413.13;;;-3.16
43292;BMP280;28754;47.700;7.924;2023-02-28T05:41:22;91407.91;;;-3.14
43292;BMP280;28754;47.700;7.924;2023-02-28T05:44:09;91406.38;;;-3.15
43292;BMP280;28754;47.700;7.924;2023-02-28T05:46:56;91409.03;;;-3.17
43292;BMP280;28754;47.700;7.924;2023-02-28T05:49:43;91404.03;;;-3.17
43292;BMP280;28754;47.700;7.924;2023-02-28T05:52:29;91402.13;;;-3.15
43292;BMP280;28754;47.700;7.924;2023-02-28T05:55:16;91404.03;;;-3.17
43292;BMP280;28754;47.700;7.924;2023-02-28T05:58:03;91413.72;;;-3.14
43292;BMP280;28754;47.700;7.924;2023-02-28T06:00:50;91405.25;;;-3.13
43292;BMP280;28754;47.700;7.924;2023-02-28T06:03:36;91410.84;;;-3.11
43292;BMP280;28754;47.700;7.924;2023-02-28T06:06:23;91440.28;;;-3.13
43292;BMP280;28754;47.700;7.924;2023-02-28T06:09:10;91415.63;;;-3.16
43292;BMP280;28754;47.700;7.924;2023-02-28T06:12:06;91417.16;;;-3.15
43292;BMP280;28754;47.700;7.924;2023-02-28T06:14:56;91417.16;;;-3.15
43292;BMP280;28754;47.700;7.924;2023-02-28T06:17:45;91422.59;;;-3.11
43292;BMP280;28754;47.700;7.924;2023-02-28T06:20:34;91429.94;;;-3.10
43292;BMP280;28754;47.700;7.924;2023-02-28T06:23:22;91424.13;;;-3.10
43292;BMP280;28754;47.700;7.924;2023-02-28T06:26:19;91426.47;;;-3.09
43292;BMP280;28754;47.700;7.924;2023-02-28T06:29:09;91422.06;;;-3.07
43292;BMP280;28754;47.700;7.924;2023-02-28T06:32:00;91412.66;;;-3.05
43292;BMP280;28754;47.700;7.924;2023-02-28T06:34:50;91434.03;;;-2.88
43292;BMP280;28754;47.700;7.924;2023-02-28T06:37:37;91430.78;;;-2.82
43292;BMP280;28754;47.700;7.924;2023-02-28T06:40:24;91417.41;;;-2.89
43292;BMP280;28754;47.700;7.924;2023-02-28T06:43:10;91432.88;;;-2.86
43292;BMP280;28754;47.700;7.924;2023-02-28T06:46:03;91440.75;;;-2.89
43292;BMP280;28754;47.700;7.924;2023-02-28T06:48:50;91441.72;;;-2.90
43292;BMP280;28754;47.700;7.924;2023-02-28T06:51:40;91439.03;;;-2.88
43292;BMP280;28754;47.700;7.924;2023-02-28T06:54:28;91438.22;;;-2.89
43292;BMP280;28754;47.700;7.924;2023-02-28T06:57:14;91448.69;;;-2.85
43292;BMP280;28754;47.700;7.924;2023-02-28T07:00:06;91448.31;;;-2.82
43292;BMP280;28754;47.700;7.924;2023-02-28T07:02:53;91444.44;;;-2.85
43292;BMP280;28754;47.700;7.924;2023-02-28T07:05:42;91445.59;;;-2.87
43292;BMP280;28754;47.700;7.924;2023-02-28T07:08:28;91448.09;;;-2.87
43292;BMP280;28754;47.700;7.924;2023-02-28T07:11:15;91449.06;;;-2.88
43292;BMP280;28754;47.700;7.924;2023-02-28T07:14:02;91462.94;;;-2.86
43292;BMP280;28754;47.700;7.924;2023-02-28T07:16:49;91456.72;;;-2.90
43292;BMP280;28754;47.700;7.924;2023-02-28T07:19:36;91468.50;;;-2.90
43292;BMP280;28754;47.700;7.924;2023-02-28T07:22:23;91473.31;;;-2.89
43292;BMP280;28754;47.700;7.924;2023-02-28T07:25:11;91460.53;;;-2.94
43292;BMP280;28754;47.700;7.924;2023-02-28T07:27:58;91478.50;;;-2.90
43292;BMP280;28754;47.700;7.924;2023-02-28T07:30:45;91485.25;;;-2.91
43292;BMP280;28754;47.700;7.924;2023-02-28T07:33:33;91480.06;;;-2.89
43292;BMP280;28754;47.700;7.924;2023-02-28T07:36:20;91473.13;;;-2.87
43292;BMP280;28754;47.700;7.924;2023-02-28T07:39:07;91476.06;;;-2.84
43292;BMP280;28754;47.700;7.924;2023-02-28T07:41:56;91475.88;;;-2.82
43292;BMP280;28754;47.700;7.924;2023-02-28T07:44:46;91474.94;;;-2.81
43292;BMP280;28754;47.700;7.924;2023-02-28T07:47:33;91470.88;;;-2.82
43292;BMP280;28754;47.700;7.924;2023-02-28T07:50:20;91475.53;;;-2.79
43292;BMP280;28754;47.700;7.924;2023-02-28T07:53:07;91480.03;;;-2.75
43292;BMP280;28754;47.700;7.924;2023-02-28T07:55:58;91492.84;;;-2.64
43292;BMP280;28754;47.700;7.924;2023-02-28T07:58:45;91483.66;;;-2.57
43292;BMP280;28754;47.700;7.924;2023-02-28T08:01:32;91483.38;;;-2.47
43292;BMP280;28754;47.700;7.924;2023-02-28T08:04:19;91487.25;;;-2.45
43292;BMP280;28754;47.700;7.924;2023-02-28T08:07:06;91482.63;;;-2.48
43292;BMP280;28754;47.700;7.924;2023-02-28T08:09:53;91497.38;;;-2.53
43292;BMP280;28754;47.700;7.924;2023-02-28T08:12:40;91493.69;;;-2.57
43292;BMP280;28754;47.700;7.924;2023-02-28T08:15:26;91487.72;;;-2.56
43292;BMP280;28754;47.700;7.924;2023-02-28T08:18:13;91495.41;;;-2.57
43292;BMP280;28754;47.700;7.924;2023-02-28T08:21:07;91506.59;;;-2.60
43292;BMP280;28754;47.700;7.924;2023-02-28T08:23:54;91503.72;;;-2.57
43292;BMP280;28754;47.700;7.924;2023-02-28T08:26:40;91512.25;;;-2.51
43292;BMP280;28754;47.700;7.924;2023-02-28T08:29:27;91510.75;;;-2.46
43292;BMP280;28754;47.700;7.924;2023-02-28T08:32:14;91518.28;;;-2.46
43292;BMP280;28754;47.700;7.924;2023-02-28T08:35:01;91508.69;;;-2.42
43292;BMP280;28754;47.700;7.924;2023-02-28T08:37:49;91500.63;;;-2.38
43292;BMP280;28754;47.700;7.924;2023-02-28T08:40:36;91522.09;;;-2.29
43292;BMP280;28754;47.700;7.924;2023-02-28T08:43:23;91519.06;;;-2.25
43292;BMP280;28754;47.700;7.924;2023-02-28T08:46:14;91513.16;;;-2.17
43292;BMP280;28754;47.700;7.924;2023-02-28T08:49:03;91514.69;;;-2.16
43292;BMP280;28754;47.700;7.924;2023-02-28T08:51:50;91513.16;;;-2.17
43292;BMP280;28754;47.700;7.924;2023-02-28T08:54:37;91518.56;;;-2.14
43292;BMP280;28754;47.700;7.924;2023-02-28T08:57:24;91525.00;;;-2.11
43292;BMP280;28754;47.700;7.924;2023-02-28T09:00:13;91528.16;;;-2.03
43292;BMP280;28754;47.700;7.924;2023-02-28T09:02:59;91526.63;;;-1.98
43292;BMP280;28754;47.700;7.924;2023-02-28T09:05:59;91525.97;;;-1.85
43292;BMP280;28754;47.700;7.924;2023-02-28T09:08:46;91524.59;;;-1.88
43292;BMP280;28754;47.700;7.924;2023-02-28T09:11:34;91525.59;;;-1.82
43292;BMP280;28754;47.700;7.924;2023-02-28T09:14:21;91535.09;;;-1.78
43292;BMP280;28754;47.700;7.924;2023-02-28T09:17:08;91534.16;;;-1.77
43292;BMP280;28754;47.700;7.924;2023-02-28T09:19:54;91536.66;;;-1.77
43292;BMP280;28754;47.700;7.924;2023-02-28T09:22:41;91540.59;;;-1.68
43292;BMP280;28754;47.700;7.924;2023-02-28T09:25:27;91534.19;;;-1.71
43292;BMP280;28754;47.700;7.924;2023-02-28T09:28:15;91531.44;;;-1.75
43292;BMP280;28754;47.700;7.924;2023-02-28T09:31:03;91534.16;;;-1.77
43292;BMP280;28754;47.700;7.924;2023-02-28T09:33:54;91533.44;;;-1.71
43292;BMP280;28754;47.700;7.924;2023-02-28T09:36:41;91534.78;;;-1.69
43292;BMP280;28754;47.700;7.924;2023-02-28T09:39:28;91538.06;;;-1.68
43292;BMP280;28754;47.700;7.924;2023-02-28T09:42:35;91535.38;;;-1.67
43292;BMP280;28754;47.700;7.924;2023-02-28T09:45:40;91545.66;;;-1.62
43292;BMP280;28754;47.700;7.924;2023-02-28T09:48:42;91534.47;;;-1.59
43292;BMP280;28754;47.700;7.924;2023-02-28T09:51:58;91537.19;;;-1.54
43292;BMP280;28754;47.700;7.924;2023-02-28T09:54:52;91538.00;;;-1.54
43292;BMP280;28754;47.700;7.924;2023-02-28T09:57:41;91531.44;;;-1.48
43292;BMP280;28754;47.700;7.924;2023-02-28T10:00:37;91537.47;;;-1.43
43292;BMP280;28754;47.700;7.924;2023-02-28T10:03:51;91543.28;;;-1.42
43292;BMP280;28754;47.700;7.924;2023-02-28T10:06:49;91544.09;;;-1.36
43292;BMP280;28754;47.700;7.924;2023-02-28T10:09:37;91545.13;;;-1.24
43292;BMP280;28754;47.700;7.924;2023-02-28T10:12:26;91552.50;;;-1.16
43292;BMP280;28754;47.700;7.924;2023-02-28T10:15:16;91558.31;;;-1.15
43292;BMP280;28754;47.700;7.924;2023-02-28T10:18:16;91551.31;;;-1.20
43292;BMP280;28754;47.700;7.924;2023-02-28T10:21:17;91551.31;;;-1.20
43292;BMP280;28754;47.700;7.924;2023-02-28T10:24:28;91560.03;;;-1.16
43292;BMP280;28754;47.700;7.924;2023-02-28T10:27:20;91560.28;;;-1.11
43292;BMP280;28754;47.700;7.924;2023-02-28T10:30:11;91563.78;;;-1.05
43292;BMP280;28754;47.700;7.924;2023-02-28T10:32:58;91553.16;;;-1.01
43292;BMP280;28754;47.700;7.924;2023-02-28T10:35:45;91574.31;;;-0.89
43292;BMP280;28754;47.700;7.924;2023-02-28T10:38:38;91580.16;;;-0.82
43292;BMP280;28754;47.700;7.924;2023-02-28T10:41:30;91575.75;;;-0.74
43292;BMP280;28754;47.700;7.924;2023-02-28T10:44:23;91569.94;;;-0.74
43292;BMP280;28754;47.700;7.924;2023-02-28T10:47:19;91578.88;;;-0.66
43292;BMP280;28754;47.700;7.924;2023-02-28T10:50:26;91570.41;;;-0.52
43292;BMP280;28754;47.700;7.924;2023-02-28T11:01:55;91578.88;;;-0.66
43292;BMP280;28754;47.700;7.924;2023-02-28T11:04:42;91573.66;;;-0.64
43292;BMP280;28754;47.700;7.924;2023-02-28T11:07:32;91578.09;;;-0.66
43292;BMP280;28754;47.700;7.924;2023-02-28T11:10:25;91576.34;;;-0.72
43292;BMP280;28754;47.700;7.924;2023-02-28T11:13:34;91581.53;;;-0.73
43292;BMP280;28754;47.700;7.924;2023-02-28T11:16:32;91588.13;;;-0.72
43292;BMP280;28754;47.700;7.924;2023-02-28T11:19:29;91581.53;;;-0.73
43292;BMP280;28754;47.700;7.924;2023-02-28T11:22:22;91570.00;;;-0.62
43292;BMP280;28754;47.700;7.924;2023-02-28T11:25:22;91583.41;;;-0.42
43292;BMP280;28754;47.700;7.924;2023-02-28T11:28:34;91585.53;;;-0.39
43292;BMP280;28754;47.700;7.924;2023-02-28T11:31:21;91581.31;;;-0.38
43292;BMP280;28754;47.700;7.924;2023-02-28T11:34:26;91579.16;;;-0.41
43292;BMP280;28754;47.700;7.924;2023-02-28T11:37:19;91570.47;;;-0.33
43292;BMP280;28754;47.700;7.924;2023-02-28T11:40:17;91573.81;;;-0.26
43292;BMP280;28754;47.700;7.924;2023-02-28T11:43:40;91562.91;;;-0.33
43292;BMP280;28754;47.700;7.924;2023-02-28T11:46:47;91586.75;;;-0.29
43292;BMP280;28754;47.700;7.924;2023-02-28T11:50:13;91571.88;;;-0.17
43292;BMP280;28754;47.700;7.924;2023-02-28T12:03:31;91570.56;;;-0.01
43292;BMP280;28754;47.700;7.924;2023-02-28T12:06:32;91571.91;;;-0.04
43292;BMP280;28754;47.700;7.924;2023-02-28T12:13:00;91580.44;;;0.01
43292;BMP280;28754;47.700;7.924;2023-02-28T12:23:36;91579.88;;;0.12
43292;BMP280;28754;47.700;7.924;2023-02-28T12:26:45;91583.00;;;0.20
43292;BMP280;28754;47.700;7.924;2023-02-28T12:30:03;91540.19;;;0.27
43292;BMP280;28754;47.700;7.924;2023-02-28T12:33:08;91557.06;;;0.52
43292;BMP280;28754;47.700;7.924;2023-02-28T12:35:58;91567.88;;;0.71
43292;BMP280;28754;47.700;7.924;2023-02-28T12:42:13;91545.88;;;1.17
43292;BMP280;28754;47.700;7.924;2023-02-28T12:48:46;91581.22;;;1.04
43292;BMP280;28754;47.700;7.924;2023-02-28T12:51:35;91566.88;;;0.98
43292;BMP280;28754;47.700;7.924;2023-02-28T12:55:06;91567.84;;;1.03
43292;BMP280;28754;47.700;7.924;2023-02-28T12:58:27;91559.47;;;1.16
43292;BMP280;28754;47.700;7.924;2023-02-28T13:04:46;91556.19;;;1.71
43292;BMP280;28754;47.700;7.924;2023-02-28T13:08:31;91548.28;;;2.29
43292;BMP280;28754;47.700;7.924;2023-02-28T13:17:25;91558.38;;;1.55
43292;BMP280;28754;47.700;7.924;2023-02-28T13:23:57;91548.53;;;1.84
43292;BMP280;28754;47.700;7.924;2023-02-28T13:29:43;91548.63;;;2.02
43292;BMP280;28754;47.700;7.924;2023-02-28T13:32:33;91545.56;;;2.24
43292;BMP280;28754;47.700;7.924;2023-02-28T13:35:43;91540.28;;;2.56
43292;BMP280;28754;47.700;7.924;2023-02-28T13:38:37;91548.53;;;2.94
43292;BMP280;28754;47.700;7.924;2023-02-28T13:44:25;91544.63;;;3.69
43292;BMP280;28754;47.700;7.924;2023-02-28T13:47:21;91546.25;;;3.45
43292;BMP280;28754;47.700;7.924;2023-02-28T13:50:28;91566.84;;;3.31
43292;BMP280;28754;47.700;7.924;2023-02-28T13:56:55;91567.38;;;2.98
43292;BMP280;28754;47.700;7.924;2023-02-28T13:59:46;91562.34;;;2.67
43292;BMP280;28754;47.700;7.924;2023-02-28T14:03:10;91573.38;;;2.55
43292;BMP280;28754;47.700;7.924;2023-02-28T14:06:31;91566.91;;;2.59
43292;BMP280;28754;47.700;7.924;2023-02-28T14:09:25;91565.50;;;2.63
43292;BMP280;28754;47.700;7.924;2023-02-28T14:12:54;91572.69;;;2.66
43292;BMP280;28754;47.700;7.924;2023-02-28T14:15:55;91580.25;;;2.41
43292;BMP280;28754;47.700;7.924;2023-02-28T14:19:01;91552.56;;;2.22
43292;BMP280;28754;47.700;7.924;2023-02-28T14:22:47;91577.28;;;2.20
43292;BMP280;28754;47.700;7.924;2023-02-28T14:25:46;91576.47;;;2.26
43292;BMP280;28754;47.700;7.924;2023-02-28T14:29:17;91569.19;;;2.67
43292;BMP280;28754;47.700;7.924;2023-02-28T14:32:28;91571.84;;;2.72
43292;BMP280;28754;47.700;7.924;2023-02-28T14:38:56;91573.22;;;3.16
43292;BMP280;28754;47.700;7.924;2023-02-28T14:41:44;91575.09;;;3.03
43292;BMP280;28754;47.700;7.924;2023-02-28T14:44:32;91577.03;;;3.25
43292;BMP280;28754;47.700;7.924;2023-02-28T14:47:18;91571.38;;;3.47
43292;BMP280;28754;47.700;7.924;2023-02-28T14:50:06;91570.09;;;3.56
43292;BMP280;28754;47.700;7.924;2023-02-28T14:52:55;91570.94;;;3.50
43292;BMP280;28754;47.700;7.924;2023-02-28T14:55:46;91572.59;;;3.74
43292;BMP280;28754;47.700;7.924;2023-02-28T14:58:34;91579.41;;;4.09
43292;BMP280;28754;47.700;7.924;2023-02-28T15:01:23;91580.41;;;4.19
43292;BMP280;28754;47.700;7.924;2023-02-28T15:04:26;91578.56;;;3.97
43292;BMP280;28754;47.700;7.924;2023-02-28T15:07:14;91577.97;;;3.66
43292;BMP280;28754;47.700;7.924;2023-02-28T15:13:12;91577.88;;;3.90
43292;BMP280;28754;47.700;7.924;2023-02-28T15:16:03;91584.69;;;4.07
43292;BMP280;28754;47.700;7.924;2023-02-28T15:18:56;91583.81;;;4.13
43292;BMP280;28754;47.700;7.924;2023-02-28T15:21:48;91584.56;;;4.02
43292;BMP280;28754;47.700;7.924;2023-02-28T15:24:47;91587.16;;;3.96
43292;BMP280;28754;47.700;7.924;2023-02-28T15:27:44;91610.91;;;3.66
43292;BMP280;28754;47.700;7.924;2023-02-28T15:30:31;91615.44;;;3.40
43292;BMP280;28754;47.700;7.924;2023-02-28T15:33:31;91609.97;;;3.42
43292;BMP280;28754;47.700;7.924;2023-02-28T15:36:19;91616.94;;;3.65
43292;BMP280;28754;47.700;7.924;2023-02-28T15:39:26;91612.22;;;3.68
43292;BMP280;28754;47.700;7.924;2023-02-28T15:42:22;91611.22;;;3.51
43292;BMP280;28754;47.700;7.924;2023-02-28T15:48:33;91611.34;;;3.21
43292;BMP280;28754;47.700;7.924;2023-02-28T15:51:29;91613.03;;;3.03
43292;BMP280;28754;47.700;7.924;2023-02-28T15:54:26;91613.66;;;2.74
43292;BMP280;28754;47.700;7.924;2023-02-28T15:57:25;91622.78;;;2.51
43292;BMP280;28754;47.700;7.924;2023-02-28T16:00:21;91627.22;;;2.79
43292;BMP280;28754;47.700;7.924;2023-02-28T16:03:26;91607.09;;;3.15
43292;BMP280;28754;47.700;7.924;2023-02-28T16:09:08;91605.41;;;3.51
43292;BMP280;28754;47.700;7.924;2023-02-28T16:11:59;91616.41;;;3.39
43292;BMP280;28754;47.700;7.924;2023-02-28T16:14:51;91617.00;;;3.41
43292;BMP280;28754;47.700;7.924;2023-02-28T16:17:39;91620.50;;;3.40
43292;BMP280;28754;47.700;7.924;2023-02-28T16:20:30;91623.00;;;3.22
43292;BMP280;28754;47.700;7.924;2023-02-28T16:23:17;91626.25;;;3.05
43292;BMP280;28754;47.700;7.924;2023-02-28T16:26:05;91621.34;;;2.85
43292;BMP280;28754;47.700;7.924;2023-02-28T16:28:53;91631.56;;;2.72
43292;BMP280;28754;47.700;7.924;2023-02-28T16:31:40;91618.88;;;2.55
43292;BMP280;28754;47.700;7.924;2023-02-28T16:34:27;91610.88;;;2.27
43292;BMP280;28754;47.700;7.924;2023-02-28T16:37:17;91633.91;;;2.00
43292;BMP280;28754;47.700;7.924;2023-02-28T16:40:05;91634.78;;;1.75
43292;BMP280;28754;47.700;7.924;2023-02-28T16:42:59;91630.19;;;1.59
43292;BMP280;28754;47.700;7.924;2023-02-28T16:45:46;91632.19;;;1.38
43292;BMP280;28754;47.700;7.924;2023-02-28T16:48:33;91639.97;;;1.17
43292;BMP280;28754;47.700;7.924;2023-02-28T16:51:20;91637.09;;;1.01
43292;BMP280;28754;47.700;7.924;2023-02-28T16:54:07;91636.69;;;0.91
43292;BMP280;28754;47.700;7.924;2023-02-28T16:56:58;91630.69;;;0.92
43292;BMP280;28754;47.700;7.924;2023-02-28T16:59:55;91641.94;;;0.83
43292;BMP280;28754;47.700;7.924;2023-02-28T17:02:55;91649.69;;;0.75
43292;BMP280;28754;47.700;7.924;2023-02-28T17:05:42;91651.06;;;0.71
43292;BMP280;28754;47.700;7.924;2023-02-28T17:08:30;91656.50;;;0.68
43292;BMP280;28754;47.700;7.924;2023-02-28T17:11:21;91647.19;;;0.69
43292;BMP280;28754;47.700;7.924;2023-02-28T17:14:14;91664.81;;;0.63
43292;BMP280;28754;47.700;7.924;2023-02-28T17:17:01;91660.72;;;0.55
43292;BMP280;28754;47.700;7.924;2023-02-28T17:19:48;91673.72;;;0.59
43292;BMP280;28754;47.700;7.924;2023-02-28T17:22:34;91669.06;;;0.56
43292;BMP280;28754;47.700;7.924;2023-02-28T17:25:23;91660.69;;;0.49
43292;BMP280;28754;47.700;7.924;2023-02-28T17:28:10;91654.72;;;0.56
43292;BMP280;28754;47.700;7.924;2023-02-28T17:30:56;91659.75;;;0.56
43292;BMP280;28754;47.700;7.924;2023-02-28T17:33:44;91674.88;;;0.63
43292;BMP280;28754;47.700;7.924;2023-02-28T17:36:31;91676.81;;;0.61
43292;BMP280;28754;47.700;7.924;2023-02-28T17:39:20;91670.59;;;0.57
43292;BMP280;28754;47.700;7.924;2023-02-28T17:42:12;91680.28;;;0.47
43292;BMP280;28754;47.700;7.924;2023-02-28T17:44:59;91697.72;;;0.48
43292;BMP280;28754;47.700;7.924;2023-02-28T17:47:49;91680.84;;;0.42
43292;BMP280;28754;47.700;7.924;2023-02-28T17:50:36;91685.69;;;0.37
43292;BMP280;28754;47.700;7.924;2023-02-28T17:53:23;91691.13;;;0.41
43292;BMP280;28754;47.700;7.924;2023-02-28T17:56:19;91698.88;;;0.39
43292;BMP280;28754;47.700;7.924;2023-02-28T17:59:09;91698.84;;;0.33
43292;BMP280;28754;47.700;7.924;2023-02-28T18:01:56;91696.91;;;0.29
43292;BMP280;28754;47.700;7.924;2023-02-28T18:04:43;91689.50;;;0.21
43292;BMP280;28754;47.700;7.924;2023-02-28T18:07:30;91690.25;;;0.15
43292;BMP280;28754;47.700;7.924;2023-02-28T18:10:19;91687.53;;;0.10
43292;BMP280;28754;47.700;7.924;2023-02-28T18:13:09;91685.78;;;0.04